Time;durP1;ratioP1;P1;durP2;ratioP2;P2;SDS_P1;SDS_P2;PMS_P1;PMS_P2;Temp;Humidity;BMP_temperature;BMP_pressure;BME280_temperature;BME280_humidity;BME280_pressure;Samples;Min_cycle;Max_cycle;Signal;HPM_P1;HPM_P2
2024/01/05 00:31:59;;;;;;;19.77;4.28;;;8.80;99.90;;;;;;6357970;22;20101;-94
2024/01/05 00:34:26;;;;;;;16.17;3.80;;;8.80;99.90;;;;;;6357952;22;19998;-93
2024/01/05 00:36:51;;;;;;;19.92;3.95;;;8.80;99.90;;;;;;6348210;22;20089;-92
2024/01/05 00:39:36;;;;;;;18.33;3.90;;;9.90;99.90;;;;;;6342853;22;20011;-92
2024/01/05 00:42:32;;;;;;;11.73;4.30;;;8.80;99.90;;;;;;6349146;22;20007;-91
2024/01/05 00:45:17;;;;;;;20.98;4.50;;;8.80;99.90;;;;;;6340157;22;20051;-90
2024/01/05 00:48:02;;;;;;;11.95;3.67;;;9.90;99.90;;;;;;6339428;22;20057;-92
2024/01/05 00:50:55;;;;;;;17.52;4.63;;;8.80;99.90;;;;;;6339497;22;20006;-91
2024/01/05 00:53:36;;;;;;;17.52;4.50;;;8.80;99.90;;;;;;6341210;22;20023;-91
2024/01/05 00:56:17;;;;;;;22.23;5.15;;;9.60;99.90;;;;;;6340903;22;20365;-92
2024/01/05 00:59:01;;;;;;;14.48;3.80;;;9.90;99.90;;;;;;6340777;22;20007;-91
2024/01/05 01:01:37;;;;;;;15.45;3.83;;;8.90;99.90;;;;;;6340715;22;20476;-91
2024/01/05 01:04:27;;;;;;;14.45;3.85;;;9.60;99.90;;;;;;6339813;22;20072;-90
2024/01/05 01:07:05;;;;;;;19.67;4.43;;;8.80;99.90;;;;;;6340132;22;20086;-91
2024/01/05 01:09:35;;;;;;;20.75;4.55;;;9.20;99.90;;;;;;6340713;22;20007;-91
2024/01/05 01:12:07;;;;;;;15.07;3.60;;;10.10;99.90;;;;;;6340849;22;20003;-93
2024/01/05 01:14:42;;;;;;;11.95;3.78;;;9.80;99.90;;;;;;6340159;22;20427;-93
2024/01/05 01:17:32;;;;;;;17.30;4.18;;;7.40;99.90;;;;;;6340556;22;19999;-94
2024/01/05 01:20:19;;;;;;;12.48;3.55;;;9.90;99.90;;;;;;6339826;22;20007;-92
2024/01/05 01:23:05;;;;;;;20.42;4.07;;;8.40;99.90;;;;;;6340391;22;20003;-92
2024/01/05 01:25:40;;;;;;;18.45;3.58;;;9.50;99.90;;;;;;6342865;22;20003;-94
2024/01/05 01:28:15;;;;;;;17.45;3.83;;;8.90;99.90;;;;;;6353447;22;20025;-92
2024/01/05 01:30:51;;;;;;;16.05;3.85;;;9.80;99.90;;;;;;6357983;22;20467;-91
2024/01/05 01:37:00;;;;;;;19.67;4.07;;;9.00;99.90;;;;;;6348552;22;20071;-92
2024/01/05 01:39:33;;;;;;;16.05;3.22;;;9.00;99.90;;;;;;6329672;22;20030;-91
2024/01/05 01:42:10;;;;;;;21.30;4.43;;;9.80;99.90;;;;;;6348704;22;20292;-92
2024/01/05 01:52:12;;;;;;;13.57;2.75;;;9.00;99.90;;;;;;6275431;22;20053;-91
2024/01/05 01:54:43;;;;;;;19.65;3.75;;;8.80;99.90;;;;;;6275498;22;20000;-90
2024/01/05 01:57:17;;;;;;;12.48;2.80;;;9.90;99.90;;;;;;6274212;22;20031;-92
2024/01/05 02:00:14;;;;;;;11.43;3.33;;;9.70;99.90;;;;;;6198980;22;20058;-90
2024/01/05 02:06:05;;;;;;;15.85;4.35;;;9.20;99.90;;;;;;6307467;22;20034;-89
2024/01/05 02:12:12;;;;;;;18.23;3.67;;;9.20;99.90;;;;;;6358728;22;20157;-90
2024/01/05 02:15:22;;;;;;;;;;;;;;;;;;;;;
2024/01/05 02:18:17;;;;;;;17.35;2.70;;;9.20;99.90;;;;;;6342216;22;20017;-91
2024/01/05 02:21:33;;;;;;;;;;;;;;;;;;;;;
2024/01/05 02:27:35;;;;;;;;;;;;;;;;;;;;;
2024/01/05 02:30:34;;;;;;;19.25;2.50;;;9.30;99.90;;;;;;6172095;22;20083;-89
2024/01/05 02:33:14;;;;;;;11.85;2.97;;;9.30;99.90;;;;;;6274070;22;20000;-90
2024/01/05 02:35:52;;;;;;;12.27;2.60;;;9.30;99.90;;;;;;6332503;22;20475;-92
2024/01/05 02:38:31;;;;;;;13.43;3.15;;;10.20;99.90;;;;;;6339411;22;20239;-90
2024/01/05 02:41:19;;;;;;;10.65;3.47;;;9.90;99.90;;;;;;6339816;22;20007;-90
2024/01/05 02:43:53;;;;;;;10.73;1.95;;;9.30;99.90;;;;;;6339409;22;20027;-92
2024/01/05 02:46:33;;;;;;;11.25;2.67;;;10.10;99.90;;;;;;6340209;22;20003;-92
2024/01/05 02:49:04;;;;;;;6.35;2.55;;;10.10;99.90;;;;;;6340411;22;20022;-92
2024/01/05 02:51:43;;;;;;;;;;;10.20;99.90;;;;;;6340598;22;20022;-92
2024/01/05 02:54:45;;;;;;;12.15;2.63;;;9.90;99.90;;;;;;6339195;22;19899;-92
2024/01/05 02:57:33;;;;;;;23.55;3.80;;;9.30;99.90;;;;;;6339956;22;19999;-94
2024/01/05 03:00:25;;;;;;;7.85;2.05;;;9.30;99.90;;;;;;6339632;22;20003;-93
2024/01/05 03:03:10;;;;;;;17.17;3.10;;;8.80;99.90;;;;;;6339519;22;20038;-91
2024/01/05 03:09:09;;;;;;;12.02;2.47;;;9.30;99.90;;;;;;6339381;22;20017;-91
2024/01/05 03:15:01;;;;;;;9.48;2.42;;;10.30;99.90;;;;;;6289718;22;20003;-93
2024/01/05 03:20:37;;;;;;;11.85;2.05;;;9.30;99.90;;;;;;6339913;22;20029;-93
2024/01/05 03:23:08;;;;;;;15.38;2.33;;;9.10;99.90;;;;;;6347854;22;20011;-94
2024/01/05 03:25:52;;;;;;;10.23;2.35;;;10.40;99.90;;;;;;6351026;22;20023;-95
2024/01/05 03:28:29;;;;;;;8.32;2.90;;;9.30;99.90;;;;;;6341141;22;20006;-94
2024/01/05 03:31:14;;;;;;;11.32;2.42;;;10.30;99.90;;;;;;6341410;22;20007;-94
2024/01/05 03:33:42;;;;;;;8.73;1.90;;;9.30;99.90;;;;;;6342482;22;19991;-94
2024/01/05 03:36:59;;;;;;;5.50;2.22;;;8.00;99.90;;;;;;6346022;22;20003;-95
2024/01/05 03:39:45;;;;;;;11.57;2.08;;;8.50;99.90;;;;;;6346062;22;20007;-95
2024/01/05 03:42:18;;;;;;;18.63;3.10;;;9.30;99.90;;;;;;6343336;22;20013;-94
2024/01/05 03:47:28;;;;;;;9.38;2.15;;;9.30;99.90;;;;;;6302710;22;20024;-94
2024/01/05 03:50:13;;;;;;;5.80;2.05;;;10.30;99.90;;;;;;6302474;22;19995;-93
2024/01/05 03:53:18;;;;;;;12.07;2.78;;;9.30;99.90;;;;;;6304595;22;20011;-93
2024/01/05 03:56:06;;;;;;;11.68;2.00;;;9.40;99.90;;;;;;6287621;22;20073;-93
2024/01/05 03:59:03;;;;;;;13.75;2.63;;;8.50;99.90;;;;;;6286892;22;20011;-95
2024/01/05 04:01:45;;;;;;;8.40;2.65;;;9.30;99.90;;;;;;6295431;22;19984;-93
2024/01/05 04:07:11;;;;;;;10.13;2.00;;;9.40;99.90;;;;;;6295681;22;20019;-94
2024/01/05 04:09:48;;;;;;;7.43;1.80;;;10.20;99.90;;;;;;6294966;22;20003;-95
2024/01/05 04:12:16;;;;;;;7.43;1.83;;;9.30;99.90;;;;;;6296204;22;20020;-95
2024/01/05 04:14:49;;;;;;;6.78;1.42;;;9.30;99.90;;;;;;6293273;22;20051;-94
2024/01/05 04:17:41;;;;;;;8.35;2.20;;;8.80;99.90;;;;;;6291102;22;20000;-94
2024/01/05 04:20:11;;;;;;;5.85;1.73;;;9.30;99.90;;;;;;6300159;22;19995;-94
2024/01/05 04:23:03;;;;;;;;;;;9.30;99.90;;;;;;6304033;22;20034;-94
2024/01/05 04:25:51;;;;;;;11.27;2.17;;;9.60;99.90;;;;;;6290500;22;19899;-93
2024/01/05 04:28:32;;;;;;;8.35;2.22;;;9.30;99.90;;;;;;6282766;22;20004;-92
2024/01/05 04:31:13;;;;;;;6.00;1.67;;;9.30;99.90;;;;;;6279326;22;20361;-93
2024/01/05 04:33:46;;;;;;;5.55;1.52;;;8.60;99.90;;;;;;6279609;22;20000;-92
2024/01/05 04:36:18;;;;;;;12.95;2.28;;;9.40;99.90;;;;;;6278813;22;20101;-93
2024/01/05 04:38:51;;;;;;;5.38;1.75;;;10.40;99.90;;;;;;6278744;22;20056;-93
2024/01/05 04:41:21;;;;;;;7.00;2.40;;;10.10;99.90;;;;;;6279675;22;20010;-93
2024/01/05 04:44:00;;;;;;;6.47;1.95;;;10.20;99.90;;;;;;6278865;22;20082;-93
2024/01/05 04:46:26;;;;;;;5.43;1.90;;;10.10;99.90;;;;;;6278704;22;20508;-95
2024/01/05 04:49:19;;;;;;;6.63;2.40;;;10.20;99.90;;;;;;6278565;22;20027;-93
2024/01/05 04:51:45;;;;;;;3.72;1.63;;;9.10;99.90;;;;;;6279597;22;20054;-93
2024/01/05 04:54:17;;;;;;;5.13;2.00;;;9.40;99.90;;;;;;6279109;22;20078;-95
2024/01/05 04:56:50;;;;;;;8.32;1.95;;;9.50;99.90;;;;;;6292433;22;20016;-94
2024/01/05 05:18:16;;;;;;;3.63;1.33;;;9.50;99.90;;;;;;6354287;22;20007;-95
2024/01/05 05:20:57;;;;;;;3.90;1.23;;;9.50;99.90;;;;;;6360600;22;20007;-95
2024/01/05 05:23:40;;;;;;;11.90;2.13;;;10.20;99.90;;;;;;6366785;22;20003;-95
2024/01/05 05:26:10;;;;;;;3.97;1.23;;;10.20;99.90;;;;;;6350585;22;20026;-95
2024/01/05 05:31:58;;;;;;;3.58;0.93;;;9.60;99.90;;;;;;6399319;22;20017;-95
2024/01/05 05:47:20;;;;;;;;;;;10.20;99.90;;;;;;6364660;22;20347;-95
2024/01/05 05:54:56;;;;;;;0.95;0.28;;;9.60;99.90;;;;;;6341930;22;20027;-93
2024/01/05 05:57:35;;;;;;;2.08;0.40;;;10.30;99.90;;;;;;6309379;22;20514;-93
2024/01/05 06:00:55;;;;;;;3.30;0.50;;;10.80;99.90;;;;;;6351530;22;20063;-93
2024/01/05 06:05:48;;;;;;;1.50;0.47;;;9.50;99.90;;;;;;6354584;22;20002;-94
2024/01/05 06:08:30;;;;;;;0.98;0.40;;;9.40;99.90;;;;;;6343921;22;20569;-92
2024/01/05 06:11:18;;;;;;;1.40;0.40;;;10.20;99.90;;;;;;6345042;22;19999;-92
2024/01/05 06:13:53;;;;;;;1.33;0.57;;;9.70;99.90;;;;;;6340423;22;20003;-94
2024/01/05 06:16:21;;;;;;;2.03;0.28;;;8.70;99.90;;;;;;6343810;22;19994;-93
2024/01/05 06:18:59;;;;;;;2.97;0.47;;;10.50;99.90;;;;;;6338827;22;20007;-93
2024/01/05 06:21:42;;;;;;;1.92;0.52;;;10.20;99.90;;;;;;6339251;22;20044;-93
2024/01/05 06:24:30;;;;;;;1.60;0.40;;;9.80;99.90;;;;;;6337906;22;20014;-92
2024/01/05 06:26:55;;;;;;;2.45;0.30;;;9.40;99.90;;;;;;6341387;22;20146;-92
2024/01/05 06:29:33;;;;;;;1.35;0.30;;;10.00;99.90;;;;;;6342778;22;20423;-91
2024/01/05 06:32:08;;;;;;;1.08;0.30;;;10.20;99.90;;;;;;6341809;22;20039;-94
2024/01/05 06:34:52;;;;;;;0.88;0.47;;;10.40;99.90;;;;;;6344611;22;20006;-93
2024/01/05 06:37:32;;;;;;;0.70;0.40;;;9.30;99.90;;;;;;6348917;22;20003;-93
2024/01/05 06:40:13;;;;;;;0.77;0.47;;;9.50;99.90;;;;;;6346260;22;20007;-95
2024/01/05 06:42:48;;;;;;;2.47;0.60;;;9.30;99.90;;;;;;6343338;22;20003;-93
2024/01/05 06:45:28;;;;;;;3.28;0.70;;;9.50;99.90;;;;;;6343030;22;20132;-94
2024/01/05 06:48:12;;;;;;;2.70;0.35;;;9.30;99.90;;;;;;6349179;22;20002;-95
2024/01/05 06:51:10;;;;;;;0.30;0.30;;;9.20;99.90;;;;;;6353627;22;19987;-94
2024/01/05 06:53:39;;;;;;;1.40;0.40;;;9.20;99.90;;;;;;6352708;22;20003;-94
2024/01/05 06:56:10;;;;;;;2.30;0.40;;;9.80;99.90;;;;;;6347167;22;20010;-94
2024/01/05 06:58:37;;;;;;;0.45;0.30;;;9.20;99.90;;;;;;6339336;22;20360;-94
2024/01/05 07:01:07;;;;;;;3.78;0.40;;;9.50;99.90;;;;;;6340277;22;20018;-94
2024/01/05 07:03:39;;;;;;;1.75;0.50;;;9.60;99.90;;;;;;6340148;22;20025;-94
2024/01/05 07:06:14;;;;;;;0.40;0.40;;;9.00;99.90;;;;;;6339564;22;20003;-94
2024/01/05 07:08:41;;;;;;;2.28;0.52;;;9.60;99.90;;;;;;6338802;22;20339;-93
2024/01/05 07:11:09;;;;;;;1.73;0.47;;;9.10;99.90;;;;;;6340217;22;20056;-93
2024/01/05 07:13:44;;;;;;;0.50;0.40;;;9.90;99.90;;;;;;6339997;22;20077;-92
2024/01/05 07:16:21;;;;;;;0.82;0.30;;;9.80;99.90;;;;;;6360776;22;20021;-92
2024/01/05 07:19:09;;;;;;;0.57;0.30;;;9.80;99.90;;;;;;6365501;22;19987;-92
2024/01/05 07:22:28;;;;;;;1.67;0.30;;;8.70;99.90;;;;;;6348864;22;20010;-93
2024/01/05 07:27:30;;;;;;;2.58;0.50;;;8.90;99.90;;;;;;6341522;22;20027;-91
2024/01/05 07:29:58;;;;;;;1.70;0.50;;;9.70;99.90;;;;;;6338688;22;20007;-91
2024/01/05 07:32:24;;;;;;;0.65;0.35;;;8.90;99.90;;;;;;6341452;22;20026;-91
2024/01/05 07:34:50;;;;;;;0.77;0.32;;;9.80;99.90;;;;;;6340065;22;19999;-91
2024/01/05 07:37:17;;;;;;;1.13;0.60;;;8.50;99.90;;;;;;6340305;22;20480;-91
2024/01/05 07:39:52;;;;;;;0.77;0.55;;;9.20;99.90;;;;;;6338880;22;20422;-90
2024/01/05 07:42:19;;;;;;;1.25;0.40;;;9.50;99.90;;;;;;6339081;22;20006;-90
2024/01/05 07:44:51;;;;;;;0.93;0.50;;;8.70;99.90;;;;;;6340242;22;20010;-91
2024/01/05 07:47:17;;;;;;;1.45;0.60;;;8.80;99.90;;;;;;6339696;22;20415;-90
2024/01/05 07:49:42;;;;;;;1.30;0.45;;;8.80;99.90;;;;;;6338762;22;20119;-90
2024/01/05 07:52:09;;;;;;;0.35;0.35;;;8.70;99.90;;;;;;6339827;22;20086;-91
2024/01/05 07:54:45;;;;;;;1.25;0.32;;;8.90;99.90;;;;;;6339420;22;20411;-91
2024/01/05 07:57:17;;;;;;;1.48;1.10;;;9.10;99.90;;;;;;6338542;22;20429;-87
2024/01/05 07:59:45;;;;;;;2.83;0.60;;;9.30;99.90;;;;;;6338489;22;20431;-93
2024/01/05 08:02:11;;;;;;;2.45;0.70;;;8.40;99.90;;;;;;6339740;22;19998;-92
2024/01/05 08:04:37;;;;;;;0.52;0.50;;;9.80;99.90;;;;;;6340565;22;20346;-89
2024/01/05 08:07:02;;;;;;;1.13;0.40;;;8.50;99.90;;;;;;6344891;22;20010;-89
2024/01/05 08:09:52;;;;;;;0.45;0.40;;;8.50;99.90;;;;;;6354863;22;20029;-94
2024/01/05 08:12:26;;;;;;;4.38;0.65;;;8.50;99.90;;;;;;6332458;22;20085;-93
2024/01/05 08:15:11;;;;;;;0.65;0.65;;;8.40;99.90;;;;;;6327269;22;20006;-93
2024/01/05 08:18:02;;;;;;;1.33;0.63;;;8.40;99.90;;;;;;6349927;22;20021;-93
2024/01/05 08:20:30;;;;;;;0.77;0.50;;;8.20;99.90;;;;;;6347404;22;20445;-91
2024/01/05 08:23:05;;;;;;;0.73;0.57;;;9.30;99.90;;;;;;6349177;22;20011;-93
2024/01/05 08:25:33;;;;;;;4.20;0.98;;;8.80;99.90;;;;;;6342835;22;20030;-91
2024/01/05 08:28:02;;;;;;;0.50;0.50;;;9.40;99.90;;;;;;6343842;22;20006;-88
2024/01/05 08:30:30;;;;;;;0.98;0.82;;;8.30;99.90;;;;;;6348497;22;20007;-89
2024/01/05 08:32:56;;;;;;;0.77;0.77;;;8.40;99.90;;;;;;6329606;22;20079;-90
2024/01/05 08:35:34;;;;;;;1.73;0.80;;;8.30;99.90;;;;;;6351060;22;20007;-91
2024/01/05 08:38:11;;;;;;;1.40;0.77;;;8.30;99.90;;;;;;6342819;22;19995;-89
2024/01/05 08:40:41;;;;;;;1.35;1.00;;;8.30;99.90;;;;;;6347569;22;20086;-92
2024/01/05 08:43:10;;;;;;;1.90;1.20;;;8.30;99.90;;;;;;6340279;22;20010;-89
2024/01/05 08:45:36;;;;;;;2.60;1.27;;;8.20;99.90;;;;;;6340113;22;20003;-90
2024/01/05 08:48:04;;;;;;;2.30;1.70;;;8.20;99.90;;;;;;6339501;22;20006;-91
2024/01/05 08:50:30;;;;;;;4.10;1.45;;;8.20;99.90;;;;;;6340602;22;20014;-88
2024/01/05 08:52:57;;;;;;;2.30;1.40;;;8.20;99.90;;;;;;6339731;22;19998;-87
2024/01/05 08:55:24;;;;;;;1.90;1.80;;;8.20;99.90;;;;;;6341244;22;20006;-89
2024/01/05 08:57:50;;;;;;;3.80;1.90;;;8.20;99.90;;;;;;6353169;22;20011;-88
2024/01/05 09:00:18;;;;;;;4.68;1.70;;;8.10;99.90;;;;;;6344420;22;19999;-90
2024/01/05 09:02:44;;;;;;;6.40;2.22;;;8.10;99.90;;;;;;6339160;22;20010;-84
2024/01/05 09:05:11;;;;;;;3.83;2.20;;;8.10;99.90;;;;;;6336834;22;20002;-91
2024/01/05 09:07:38;;;;;;;2.08;1.83;;;8.10;99.90;;;;;;6335857;22;20187;-89
2024/01/05 09:10:04;;;;;;;2.08;1.80;;;8.10;99.90;;;;;;6338919;22;20003;-85
2024/01/05 09:12:29;;;;;;;2.30;2.10;;;8.10;99.90;;;;;;6337611;22;20446;-87
2024/01/05 09:14:55;;;;;;;2.25;2.00;;;8.10;99.90;;;;;;6335647;22;20008;-89
2024/01/05 09:17:22;;;;;;;2.67;2.25;;;8.00;99.90;;;;;;6339665;22;20044;-89
2024/01/05 09:19:48;;;;;;;5.63;2.13;;;8.00;99.90;;;;;;6338610;22;20026;-88
2024/01/05 09:22:13;;;;;;;2.60;2.05;;;8.00;99.90;;;;;;6347290;22;20005;-87
2024/01/05 09:24:41;;;;;;;2.22;2.03;;;8.00;99.90;;;;;;6338980;22;20447;-90
2024/01/05 09:27:11;;;;;;;4.05;2.10;;;8.00;99.90;;;;;;6308882;22;20392;-90
2024/01/05 09:29:40;;;;;;;4.22;1.95;;;8.00;99.90;;;;;;6338823;22;20018;-90
2024/01/05 09:32:06;;;;;;;6.38;2.13;;;7.90;99.90;;;;;;6340320;22;20014;-86
2024/01/05 09:34:32;;;;;;;2.10;1.95;;;8.00;99.90;;;;;;6339262;22;20354;-89
2024/01/05 09:37:02;;;;;;;2.22;2.13;;;7.90;99.90;;;;;;6338546;22;20046;-89
2024/01/05 09:39:29;;;;;;;1.83;1.73;;;7.90;99.90;;;;;;6339135;22;20003;-89
2024/01/05 09:42:08;;;;;;;2.15;2.05;;;7.90;99.90;;;;;;6340562;22;19999;-95
2024/01/05 09:44:36;;;;;;;2.20;1.98;;;7.90;99.90;;;;;;6338139;22;20011;-89
2024/01/05 09:47:01;;;;;;;2.30;2.20;;;7.90;99.90;;;;;;6340130;22;20052;-87
2024/01/05 09:49:37;;;;;;;3.22;2.30;;;9.00;99.90;;;;;;6341948;22;20304;-91
2024/01/05 09:52:03;;;;;;;2.72;2.53;;;7.90;99.90;;;;;;6335070;22;19998;-82
2024/01/05 09:54:29;;;;;;;2.25;2.05;;;7.90;99.90;;;;;;6330384;22;20009;-82
2024/01/05 09:56:55;;;;;;;2.88;2.67;;;7.90;99.90;;;;;;6334736;22;19999;-84
2024/01/05 09:59:22;;;;;;;3.50;3.17;;;7.90;99.90;;;;;;6332757;22;20022;-85
2024/01/05 10:01:49;;;;;;;3.83;3.20;;;7.90;99.90;;;;;;6333710;22;19999;-80
2024/01/05 10:04:15;;;;;;;4.78;3.72;;;7.90;99.90;;;;;;6335294;22;20014;-85
2024/01/05 10:06:41;;;;;;;3.75;3.10;;;7.90;99.90;;;;;;6335851;22;20532;-81
2024/01/05 10:09:06;;;;;;;3.00;2.80;;;7.90;99.90;;;;;;6334515;22;20013;-82
2024/01/05 10:11:34;;;;;;;3.30;3.10;;;7.90;99.90;;;;;;6336427;22;20003;-83
2024/01/05 10:14:04;;;;;;;2.67;2.47;;;8.80;99.90;;;;;;6334731;22;20007;-88
2024/01/05 10:16:37;;;;;;;3.70;3.33;;;8.20;99.90;;;;;;6334881;22;20007;-83
2024/01/05 10:19:17;;;;;;;2.97;2.78;;;7.90;99.90;;;;;;6336687;22;20009;-83
2024/01/05 10:21:45;;;;;;;3.90;2.42;;;7.90;99.90;;;;;;6335167;22;19999;-81
2024/01/05 10:24:29;;;;;;;3.88;2.83;;;7.90;99.90;;;;;;6333006;22;20015;-83
2024/01/05 10:27:04;;;;;;;3.00;2.80;;;7.90;99.90;;;;;;6334833;22;20011;-82
2024/01/05 10:29:30;;;;;;;3.78;3.35;;;7.90;99.90;;;;;;6333859;22;20002;-80
2024/01/05 10:32:11;;;;;;;3.40;3.20;;;7.90;99.90;;;;;;6331326;22;20450;-86
2024/01/05 10:34:38;;;;;;;4.47;3.25;;;7.90;99.90;;;;;;6331228;22;20002;-86
2024/01/05 10:37:05;;;;;;;5.18;3.30;;;7.90;99.90;;;;;;6332626;22;20227;-85
2024/01/05 10:39:30;;;;;;;3.30;3.10;;;7.80;99.90;;;;;;6330200;22;20002;-84
2024/01/05 10:42:20;;;;;;;4.22;3.03;;;7.90;99.90;;;;;;6332804;22;20009;-85
2024/01/05 10:44:48;;;;;;;4.07;3.08;;;7.80;99.90;;;;;;6332739;22;20014;-82
2024/01/05 10:47:17;;;;;;;6.40;3.20;;;7.90;99.90;;;;;;6333435;22;20052;-83
2024/01/05 10:49:49;;;;;;;4.70;3.00;;;8.20;99.90;;;;;;6334252;22;20213;-83
2024/01/05 10:52:16;;;;;;;3.88;3.55;;;7.80;99.90;;;;;;6333809;22;20002;-84
2024/01/05 10:54:48;;;;;;;5.03;3.13;;;7.80;99.90;;;;;;6335159;22;20006;-83
2024/01/05 10:57:15;;;;;;;3.70;3.40;;;7.80;99.90;;;;;;6335928;22;20009;-85
2024/01/05 10:59:48;;;;;;;4.70;3.75;;;7.80;99.90;;;;;;6335221;22;20564;-83
2024/01/05 11:02:41;;;;;;;9.85;4.13;;;7.80;99.90;;;;;;6336534;22;20002;-84
2024/01/05 11:05:12;;;;;;;4.30;3.85;;;7.80;99.90;;;;;;6323544;22;20125;-86
2024/01/05 11:07:39;;;;;;;3.80;3.08;;;7.80;99.90;;;;;;6336393;22;20003;-84
2024/01/05 11:10:24;;;;;;;3.00;2.75;;;7.80;99.90;;;;;;6336970;22;20082;-87
2024/01/05 11:12:52;;;;;;;2.97;2.67;;;7.80;99.90;;;;;;6336344;22;20003;-84
2024/01/05 11:15:42;;;;;;;3.40;2.95;;;7.80;99.90;;;;;;6338269;22;20003;-87
2024/01/05 11:18:17;;;;;;;2.30;2.10;;;7.80;99.90;;;;;;6335895;22;20006;-87
2024/01/05 11:21:08;;;;;;;3.15;2.60;;;7.80;99.90;;;;;;6335601;22;20221;-89
2024/01/05 11:23:35;;;;;;;3.60;2.63;;;7.80;99.90;;;;;;6336758;22;20041;-86
2024/01/05 11:26:02;;;;;;;2.35;2.08;;;7.80;99.90;;;;;;6335391;22;20003;-83
2024/01/05 11:28:36;;;;;;;2.72;2.25;;;7.80;99.90;;;;;;6335658;22;20031;-86
2024/01/05 11:31:03;;;;;;;4.75;2.53;;;7.80;99.90;;;;;;6338371;22;20319;-87
2024/01/05 11:33:43;;;;;;;3.72;2.38;;;7.80;99.90;;;;;;6336758;22;19999;-85
2024/01/05 11:36:09;;;;;;;7.03;2.73;;;7.70;99.90;;;;;;6335254;22;20479;-85
2024/01/05 11:38:41;;;;;;;5.45;2.55;;;7.60;99.90;;;;;;6335582;22;20003;-84
2024/01/05 11:41:19;;;;;;;4.68;3.10;;;7.80;99.90;;;;;;6335478;22;20003;-86
2024/01/05 11:43:45;;;;;;;5.43;2.92;;;7.70;99.90;;;;;;6335188;22;20006;-86
2024/01/05 11:46:12;;;;;;;2.85;2.65;;;7.80;99.90;;;;;;6335658;22;20014;-84
2024/01/05 11:48:38;;;;;;;2.78;2.00;;;7.80;99.90;;;;;;6336552;22;20007;-84
2024/01/05 11:51:10;;;;;;;2.38;2.17;;;7.80;99.90;;;;;;6335773;22;20358;-85
2024/01/05 11:53:36;;;;;;;2.20;2.10;;;7.70;99.90;;;;;;6334750;22;20434;-84
2024/01/05 11:56:07;;;;;;;5.05;2.60;;;7.70;99.90;;;;;;6334386;22;20072;-85
2024/01/05 11:58:36;;;;;;;2.58;2.22;;;7.80;99.90;;;;;;6333962;22;20040;-85
2024/01/05 12:01:05;;;;;;;3.55;2.40;;;7.80;99.90;;;;;;6333102;22;20002;-84
2024/01/05 12:03:31;;;;;;;2.65;2.42;;;7.80;99.90;;;;;;6334189;22;20449;-84
2024/01/05 12:06:06;;;;;;;5.45;2.78;;;7.80;99.90;;;;;;6334217;22;19999;-84
2024/01/05 12:08:33;;;;;;;8.65;3.00;;;7.80;99.90;;;;;;6337179;22;20095;-84
2024/01/05 12:11:02;;;;;;;3.90;2.58;;;7.90;99.90;;;;;;6336081;22;20083;-85
2024/01/05 12:13:29;;;;;;;4.47;2.72;;;7.90;99.90;;;;;;6336771;22;20090;-85
2024/01/05 12:15:58;;;;;;;3.28;2.97;;;7.90;99.90;;;;;;6334048;22;20395;-85
2024/01/05 12:18:27;;;;;;;5.50;3.50;;;7.90;99.90;;;;;;6336732;22;20010;-86
2024/01/05 12:20:58;;;;;;;3.58;3.28;;;7.90;99.90;;;;;;6339004;22;20013;-86
2024/01/05 12:23:25;;;;;;;4.10;3.28;;;8.00;99.90;;;;;;6336529;22;20489;-85
2024/01/05 12:26:09;;;;;;;5.57;3.78;;;8.80;99.90;;;;;;6337463;22;20007;-86
2024/01/05 12:28:39;;;;;;;5.25;3.97;;;8.00;99.90;;;;;;6339638;22;20128;-89
2024/01/05 12:31:07;;;;;;;4.43;4.03;;;8.00;99.90;;;;;;6342413;22;20003;-88
2024/01/05 12:33:44;;;;;;;4.75;3.45;;;8.00;99.90;;;;;;6341717;22;20427;-87
2024/01/05 12:36:12;;;;;;;4.22;3.30;;;8.00;99.90;;;;;;6338537;22;20052;-85
2024/01/05 12:38:38;;;;;;;3.15;2.80;;;7.90;99.90;;;;;;6336375;22;20013;-82
2024/01/05 12:41:06;;;;;;;3.75;3.45;;;7.90;99.90;;;;;;6337464;22;19998;-83
2024/01/05 12:43:32;;;;;;;4.80;3.83;;;7.90;99.90;;;;;;6335698;22;20014;-84
2024/01/05 12:46:01;;;;;;;4.68;3.60;;;7.90;99.90;;;;;;6338280;22;19999;-86
2024/01/05 12:48:27;;;;;;;6.70;3.67;;;7.90;99.90;;;;;;6335926;22;20455;-84
2024/01/05 12:51:05;;;;;;;6.15;4.60;;;7.90;99.90;;;;;;6337651;22;20026;-84
2024/01/05 12:53:31;;;;;;;3.85;3.55;;;7.90;99.90;;;;;;6336489;22;20003;-84
2024/01/05 12:56:06;;;;;;;3.72;3.25;;;7.90;99.90;;;;;;6338354;22;20006;-84
2024/01/05 12:58:40;;;;;;;7.38;3.58;;;7.90;99.90;;;;;;6337770;22;20301;-84
2024/01/05 13:01:26;;;;;;;3.65;3.00;;;7.90;99.90;;;;;;6353576;22;20006;-87
2024/01/05 13:03:57;;;;;;;3.30;3.10;;;7.90;99.90;;;;;;6344062;22;20080;-87
2024/01/05 13:06:29;;;;;;;3.40;3.15;;;7.90;99.90;;;;;;6339030;22;19995;-87
2024/01/05 13:08:56;;;;;;;3.05;2.38;;;7.90;99.90;;;;;;6342683;22;20003;-88
2024/01/05 13:11:22;;;;;;;3.10;2.72;;;7.90;99.90;;;;;;6351946;22;20020;-86
2024/01/05 13:13:50;;;;;;;2.78;2.58;;;7.90;99.90;;;;;;6345150;22;20072;-88
2024/01/05 13:16:16;;;;;;;2.10;1.90;;;7.90;99.90;;;;;;6338197;22;20006;-82
2024/01/05 13:18:42;;;;;;;2.05;1.95;;;7.90;99.90;;;;;;6337352;22;20002;-86
2024/01/05 13:21:07;;;;;;;1.85;1.70;;;7.90;99.90;;;;;;6338440;22;20003;-88
2024/01/05 13:23:33;;;;;;;2.30;2.10;;;8.50;99.90;;;;;;6337796;22;20010;-88
2024/01/05 13:26:00;;;;;;;2.78;2.58;;;7.90;99.90;;;;;;6337085;22;20002;-80
2024/01/05 13:28:58;;;;;;;3.10;2.80;;;7.90;99.90;;;;;;5055871;27;20399;-82
2024/01/05 13:31:23;;;;;;;2.65;2.45;;;8.00;99.90;;;;;;5067273;28;20082;-81
2024/01/05 13:33:49;;;;;;;4.25;2.70;;;8.00;99.90;;;;;;5067216;28;20036;-80
2024/01/05 13:36:15;;;;;;;2.47;2.28;;;8.00;99.90;;;;;;5071881;28;20125;-80
2024/01/05 13:38:40;;;;;;;2.53;1.92;;;8.00;99.90;;;;;;5067909;28;20334;-79
2024/01/05 13:41:07;;;;;;;3.22;2.70;;;8.00;99.90;;;;;;5065075;28;20170;-84
2024/01/05 13:43:34;;;;;;;3.40;3.10;;;7.90;99.90;;;;;;5068131;28;20047;-84
2024/01/05 13:46:00;;;;;;;3.70;3.30;;;7.90;99.90;;;;;;5068694;28;20029;-85
2024/01/05 13:48:27;;;;;;;4.97;3.45;;;7.90;99.90;;;;;;5069456;28;20109;-84
2024/01/05 13:50:53;;;;;;;4.40;4.00;;;7.80;99.90;;;;;;5067491;28;20384;-84
2024/01/05 13:53:18;;;;;;;5.75;5.25;;;7.90;99.90;;;;;;5067138;28;20036;-83
2024/01/05 13:55:44;;;;;;;6.53;4.93;;;7.90;99.90;;;;;;5068968;28;20017;-83
2024/01/05 13:58:09;;;;;;;6.68;5.40;;;7.90;99.90;;;;;;5067889;28;20043;-82
2024/01/05 14:00:35;;;;;;;6.40;5.13;;;7.80;99.90;;;;;;5067279;28;20062;-83
2024/01/05 14:03:00;;;;;;;7.95;5.85;;;7.80;99.90;;;;;;5074679;28;20028;-84
2024/01/05 14:05:26;;;;;;;6.40;5.90;;;7.80;99.90;;;;;;5070430;28;20021;-84
2024/01/05 14:07:52;;;;;;;7.07;5.22;;;7.80;99.90;;;;;;5066824;28;20443;-84
2024/01/05 14:10:18;;;;;;;5.38;4.93;;;7.80;99.90;;;;;;5067361;28;20503;-84
2024/01/05 14:12:43;;;;;;;6.18;5.50;;;7.80;99.90;;;;;;5079126;28;20032;-84
2024/01/05 14:15:09;;;;;;;8.10;6.43;;;7.70;99.90;;;;;;5076298;28;20036;-85
2024/01/05 14:17:38;;;;;;;6.18;5.57;;;7.80;99.90;;;;;;5066233;28;20033;-84
2024/01/05 14:20:04;;;;;;;5.10;4.70;;;7.80;99.90;;;;;;5068777;28;20090;-84
2024/01/05 14:22:32;;;;;;;5.07;3.80;;;7.80;99.90;;;;;;5068171;28;20392;-84
2024/01/05 14:24:57;;;;;;;4.07;3.78;;;7.90;99.90;;;;;;5066107;28;20540;-84
2024/01/05 14:27:23;;;;;;;5.32;4.20;;;7.90;99.90;;;;;;5062127;28;20153;-85
2024/01/05 14:29:49;;;;;;;4.00;3.70;;;8.00;99.90;;;;;;5068706;28;20472;-83
2024/01/05 14:32:15;;;;;;;4.35;3.55;;;7.90;99.90;;;;;;5066662;28;20033;-84
2024/01/05 14:34:42;;;;;;;4.07;3.72;;;7.90;99.90;;;;;;5066648;28;20487;-84
2024/01/05 14:37:08;;;;;;;3.58;3.22;;;7.90;99.90;;;;;;5075906;28;20124;-83
2024/01/05 14:39:34;;;;;;;4.72;3.85;;;8.20;99.90;;;;;;5056702;28;20453;-83
2024/01/05 14:42:00;;;;;;;3.80;3.03;;;7.90;99.90;;;;;;5042475;28;20051;-85
2024/01/05 14:44:26;;;;;;;2.47;2.10;;;8.00;99.90;;;;;;5051834;28;20025;-83
2024/01/05 14:46:52;;;;;;;2.22;2.00;;;7.90;99.90;;;;;;5048499;28;20040;-85
2024/01/05 14:49:17;;;;;;;5.18;2.42;;;7.90;99.90;;;;;;5060797;28;20526;-84
2024/01/05 14:51:43;;;;;;;2.17;1.98;;;7.90;99.90;;;;;;5054228;28;20036;-83
2024/01/05 14:54:10;;;;;;;3.78;2.25;;;7.90;99.90;;;;;;5059018;28;20051;-84
2024/01/05 14:56:36;;;;;;;4.28;3.88;;;7.90;99.90;;;;;;5053763;28;20381;-88
2024/01/05 14:59:01;;;;;;;2.78;2.40;;;7.90;99.90;;;;;;5053647;28;20047;-85
2024/01/05 15:01:27;;;;;;;2.72;1.90;;;7.90;99.90;;;;;;5056700;28;20029;-89
2024/01/05 15:03:52;;;;;;;2.95;2.28;;;8.00;99.90;;;;;;5054957;28;20056;-82
2024/01/05 15:06:21;;;;;;;2.10;2.00;;;8.00;99.90;;;;;;5056137;28;20106;-81
2024/01/05 15:08:47;;;;;;;3.10;2.42;;;8.00;99.90;;;;;;5052657;28;20045;-83
2024/01/05 15:11:19;;;;;;;1.92;1.80;;;8.00;99.90;;;;;;5048395;28;20037;-84
2024/01/05 15:13:46;;;;;;;2.88;2.33;;;8.00;99.90;;;;;;5073118;28;20020;-84
2024/01/05 15:16:12;;;;;;;2.67;2.13;;;8.00;99.90;;;;;;5060086;28;20107;-82
2024/01/05 15:18:37;;;;;;;3.05;2.42;;;8.10;99.90;;;;;;5065288;28;20162;-82
2024/01/05 15:21:03;;;;;;;4.95;2.83;;;8.00;99.90;;;;;;5053086;28;20037;-83
2024/01/05 15:23:29;;;;;;;5.07;2.15;;;8.10;99.90;;;;;;5053354;28;20029;-85